createdAt,value
2023-04-14T00:00:59.338Z,0.00
2023-04-14T00:01:59.234Z,0.00
2023-04-14T00:02:59.271Z,0.00
2023-04-14T00:03:59.243Z,0.00
2023-04-14T00:04:59.185Z,0.00
2023-04-14T00:05:59.022Z,0.00
2023-04-14T00:06:58.974Z,0.00
2023-04-14T00:07:58.859Z,0.00
2023-04-14T00:08:59.200Z,0.00
2023-04-14T00:09:58.753Z,0.00
2023-04-14T00:10:58.823Z,0.00
2023-04-14T00:11:58.685Z,0.00
2023-04-14T00:12:58.872Z,0.00
2023-04-14T00:13:58.576Z,0.00
2023-04-14T00:14:58.626Z,0.00
2023-04-14T00:15:58.474Z,0.00
2023-04-14T00:16:58.686Z,0.00
2023-04-14T00:17:58.524Z,0.00
2023-04-14T00:18:58.746Z,0.00
2023-04-14T00:19:58.285Z,0.00
2023-04-14T00:20:58.362Z,0.00
2023-04-14T00:21:58.206Z,0.00
2023-04-14T00:22:58.380Z,0.00
2023-04-14T00:23:58.122Z,0.00
2023-04-14T00:24:58.187Z,0.00
2023-04-14T00:25:57.999Z,0.00
2023-04-14T00:26:58.000Z,0.00
2023-04-14T00:27:57.912Z,0.00
2023-04-14T00:28:58.027Z,0.00
2023-04-14T00:29:58.073Z,0.00
2023-04-14T00:30:57.885Z,0.00
2023-04-14T00:31:57.720Z,0.00
2023-04-14T00:32:57.914Z,0.00
2023-04-14T00:33:57.632Z,0.00
2023-04-14T00:34:57.644Z,0.00
2023-04-14T00:35:57.526Z,0.00
2023-04-14T00:36:57.659Z,0.00
2023-04-14T00:37:57.441Z,0.00
2023-04-14T00:38:57.703Z,0.00
2023-04-14T00:39:57.341Z,0.00
2023-04-14T00:40:57.546Z,0.00
2023-04-14T00:41:57.248Z,0.00
2023-04-14T00:42:57.305Z,0.00
2023-04-14T00:43:57.160Z,0.00
2023-04-14T00:44:57.302Z,0.00
2023-04-14T00:45:57.104Z,0.00
2023-04-14T00:46:57.150Z,0.00
2023-04-14T00:47:57.101Z,0.00
2023-04-14T00:48:57.167Z,0.00
2023-04-14T00:49:57.051Z,0.00
2023-04-14T00:50:56.956Z,0.00
2023-04-14T00:51:56.778Z,0.00
2023-04-14T00:52:56.959Z,0.00
2023-04-14T00:53:56.699Z,0.00
2023-04-14T00:54:56.769Z,0.00
2023-04-14T00:55:56.788Z,0.00
2023-04-14T00:56:56.784Z,0.00
2023-04-14T00:57:56.495Z,0.00
2023-04-14T00:58:56.597Z,0.00
2023-04-14T00:59:56.401Z,0.00
2023-04-14T01:00:56.414Z,0.00
2023-04-14T01:01:56.548Z,0.00
2023-04-14T01:02:56.597Z,0.00
2023-04-14T01:03:56.398Z,0.00
2023-04-14T01:04:56.317Z,0.00
2023-04-14T01:05:56.109Z,0.00
2023-04-14T01:06:56.259Z,0.00
2023-04-14T01:07:56.345Z,0.00
2023-04-14T01:08:56.050Z,0.00
2023-04-14T01:09:55.922Z,0.00
2023-04-14T01:10:56.064Z,0.00
2023-04-14T01:11:55.823Z,0.00
2023-04-14T01:12:55.779Z,0.00
2023-04-14T01:13:55.932Z,0.00
2023-04-14T01:14:55.899Z,0.00
2023-04-14T01:15:55.711Z,0.00
2023-04-14T01:16:56.752Z,0.00
2023-04-14T01:17:55.584Z,0.00
2023-04-14T01:18:55.488Z,0.00
2023-04-14T01:19:55.576Z,0.00
2023-04-14T01:20:55.554Z,0.00
2023-04-14T01:21:55.347Z,0.00
2023-04-14T01:22:55.562Z,0.00
2023-04-14T01:23:55.268Z,0.00
2023-04-14T01:24:55.204Z,0.00
2023-04-14T01:25:55.159Z,0.00
2023-04-14T01:26:55.190Z,0.00
2023-04-14T01:27:55.054Z,0.00
2023-04-14T01:28:55.208Z,0.00
2023-04-14T01:29:55.315Z,0.00
2023-04-14T01:30:54.910Z,0.00
2023-04-14T01:31:54.998Z,0.00
2023-04-14T01:32:55.059Z,0.00
2023-04-14T01:33:54.792Z,0.00
2023-04-14T01:34:54.813Z,0.00
2023-04-14T01:35:54.672Z,0.00
2023-04-14T01:36:54.624Z,0.00
2023-04-14T01:37:54.830Z,0.00
2023-04-14T01:38:54.544Z,0.00
2023-04-14T01:39:54.654Z,0.00
2023-04-14T01:40:54.708Z,0.00
2023-04-14T01:41:54.450Z,0.00
2023-04-14T01:42:54.457Z,0.00
2023-04-14T01:43:54.291Z,0.00
2023-04-14T01:44:54.493Z,0.00
2023-04-14T01:45:54.283Z,0.00
2023-04-14T01:46:54.281Z,0.00
2023-04-14T01:47:54.148Z,0.00
2023-04-14T01:48:54.074Z,0.00
2023-04-14T01:49:54.051Z,0.00
2023-04-14T01:50:54.315Z,0.00
2023-04-14T01:51:53.917Z,0.00
2023-04-14T01:52:53.928Z,0.00
2023-04-14T01:53:53.828Z,0.00
2023-04-14T01:54:53.800Z,0.00
2023-04-14T01:55:53.718Z,0.00
2023-04-14T01:56:53.947Z,0.00
2023-04-14T01:57:53.620Z,0.00
2023-04-14T01:58:53.751Z,0.00
2023-04-14T01:59:53.530Z,0.00
2023-04-14T02:00:53.524Z,0.00
2023-04-14T02:01:53.804Z,0.00
2023-04-14T02:02:53.529Z,0.00
2023-04-14T02:03:53.714Z,0.00
2023-04-14T02:04:53.315Z,0.00
2023-04-14T02:05:53.399Z,0.00
2023-04-14T02:06:53.424Z,0.00
2023-04-14T02:07:53.187Z,0.00
2023-04-14T02:08:53.217Z,0.00
2023-04-14T02:09:53.053Z,0.00
2023-04-14T02:10:53.248Z,0.00
2023-04-14T02:11:52.966Z,0.00
2023-04-14T02:12:53.092Z,0.00
2023-04-14T02:13:53.049Z,0.00
2023-04-14T02:14:52.817Z,0.00
2023-04-14T02:15:52.858Z,0.00
2023-04-14T02:16:52.744Z,0.00
2023-04-14T02:17:53.055Z,0.00
2023-04-14T02:18:52.878Z,0.00
2023-04-14T02:19:52.580Z,0.00
2023-04-14T02:20:52.790Z,0.00
2023-04-14T02:21:52.514Z,0.00
2023-04-14T02:22:52.504Z,0.00
2023-04-14T02:23:52.698Z,0.00
2023-04-14T02:24:52.372Z,0.00
2023-04-14T02:25:52.282Z,0.00
2023-04-14T02:26:52.320Z,0.00
2023-04-14T02:27:52.247Z,0.00
2023-04-14T02:28:52.358Z,0.00
2023-04-14T02:29:52.102Z,0.00
2023-04-14T02:30:52.263Z,0.00
2023-04-14T02:31:51.994Z,0.00
2023-04-14T02:32:52.170Z,0.00
2023-04-14T02:33:51.908Z,0.00
2023-04-14T02:34:51.971Z,0.00
2023-04-14T02:35:51.829Z,0.00
2023-04-14T02:36:51.765Z,0.00
2023-04-14T02:37:51.722Z,0.00
2023-04-14T02:38:51.799Z,0.00
2023-04-14T02:39:51.853Z,0.00
2023-04-14T02:40:51.807Z,0.00
2023-04-14T02:41:51.616Z,0.00
2023-04-14T02:42:51.473Z,0.00
2023-04-14T02:43:51.439Z,0.00
2023-04-14T02:44:51.672Z,0.00
2023-04-14T02:45:51.378Z,0.00
2023-04-14T02:46:51.472Z,0.00
2023-04-14T02:47:51.274Z,0.00
2023-04-14T02:48:51.187Z,0.00
2023-04-14T02:49:51.161Z,0.00
2023-04-14T02:50:51.275Z,0.00
2023-04-14T02:51:51.347Z,0.00
2023-04-14T02:52:51.082Z,0.00
2023-04-14T02:53:50.965Z,0.00
2023-04-14T02:54:50.903Z,0.00
2023-04-14T02:55:50.862Z,0.00
2023-04-14T02:56:50.922Z,0.00
2023-04-14T02:57:50.796Z,0.00
2023-04-14T02:58:50.919Z,0.00
2023-04-14T02:59:50.673Z,0.00
2023-04-14T03:00:50.624Z,0.00
2023-04-14T03:01:50.818Z,0.00
2023-04-14T03:02:50.615Z,0.00
2023-04-14T03:03:50.795Z,0.00
2023-04-14T03:04:50.444Z,0.00
2023-04-14T03:05:50.573Z,0.00
2023-04-14T03:06:50.341Z,0.00
2023-04-14T03:07:50.383Z,0.00
2023-04-14T03:08:50.245Z,0.00
2023-04-14T03:09:50.394Z,0.00
2023-04-14T03:10:50.157Z,0.00
2023-04-14T03:11:50.252Z,0.00
2023-04-14T03:12:50.123Z,0.00
2023-04-14T03:13:50.217Z,0.00
2023-04-14T03:14:49.988Z,0.00
2023-04-14T03:15:50.113Z,0.00
2023-04-14T03:16:51.128Z,0.00
2023-04-14T03:17:50.132Z,0.00
2023-04-14T03:18:49.761Z,0.00
2023-04-14T03:19:49.845Z,0.00
2023-04-14T03:20:49.669Z,0.00
2023-04-14T03:21:49.865Z,0.00
2023-04-14T03:22:49.572Z,0.00
2023-04-14T03:23:49.523Z,0.00
2023-04-14T03:24:49.695Z,0.00
2023-04-14T03:25:49.427Z,0.00
2023-04-14T03:26:49.490Z,0.00
2023-04-14T03:27:49.544Z,0.00
2023-04-14T03:28:49.283Z,0.00
2023-04-14T03:29:49.237Z,0.00
2023-04-14T03:30:49.321Z,0.00
2023-04-14T03:31:49.273Z,0.00
2023-04-14T03:32:49.376Z,0.00
2023-04-14T03:33:49.192Z,0.00
2023-04-14T03:34:49.000Z,0.00
2023-04-14T03:35:48.978Z,0.00
2023-04-14T03:36:49.186Z,0.00
2023-04-14T03:37:48.848Z,0.00
2023-04-14T03:38:48.965Z,0.00
2023-04-14T03:39:48.789Z,0.00
2023-04-14T03:40:48.840Z,0.00
2023-04-14T03:41:48.673Z,0.00
2023-04-14T03:42:48.787Z,0.00
2023-04-14T03:43:48.567Z,0.00
2023-04-14T03:44:48.804Z,0.00
2023-04-14T03:45:48.492Z,0.00
2023-04-14T03:46:48.478Z,0.00
2023-04-14T03:47:48.663Z,0.00
2023-04-14T03:48:48.331Z,0.00
2023-04-14T03:49:48.439Z,0.00
2023-04-14T03:50:48.230Z,0.00
2023-04-14T03:51:48.442Z,0.00
2023-04-14T03:52:48.130Z,0.00
2023-04-14T03:53:48.280Z,0.00
2023-04-14T03:54:48.042Z,0.00
2023-04-14T03:55:48.283Z,0.00
2023-04-14T03:56:47.948Z,0.00
2023-04-14T03:57:47.893Z,0.00
2023-04-14T03:58:47.843Z,0.00
2023-04-14T03:59:48.095Z,0.00
2023-04-14T04:00:47.762Z,0.00
2023-04-14T04:01:47.956Z,0.00
2023-04-14T04:02:47.819Z,0.00
2023-04-14T04:03:47.798Z,0.00
2023-04-14T04:04:47.815Z,0.00
2023-04-14T04:05:47.508Z,0.00
2023-04-14T04:06:47.737Z,0.00
2023-04-14T04:07:47.426Z,0.00
2023-04-14T04:08:47.551Z,0.00
2023-04-14T04:09:47.614Z,0.00
2023-04-14T04:10:47.369Z,0.00
2023-04-14T04:11:47.219Z,0.00
2023-04-14T04:12:47.390Z,0.00
2023-04-14T04:13:47.139Z,0.00
2023-04-14T04:14:47.114Z,4.00
2023-04-14T04:15:47.045Z,4.00
2023-04-14T04:16:47.231Z,8.00
2023-04-14T04:17:47.012Z,4.00
2023-04-14T04:18:47.105Z,8.00
2023-04-14T04:19:46.948Z,8.00
2023-04-14T04:20:46.799Z,12.00
2023-04-14T04:21:46.876Z,12.00
2023-04-14T04:22:46.844Z,12.00
2023-04-14T04:23:46.644Z,16.00
2023-04-14T04:24:46.851Z,20.00
2023-04-14T04:25:46.549Z,24.00
2023-04-14T04:26:46.486Z,28.00
2023-04-14T04:27:46.659Z,36.00
2023-04-14T04:28:46.409Z,40.00
2023-04-14T04:29:46.884Z,48.00
2023-04-14T04:30:46.304Z,56.00
2023-04-14T04:31:46.341Z,68.00
2023-04-14T04:32:46.220Z,76.00
2023-04-14T04:33:46.302Z,92.00
2023-04-14T04:34:46.133Z,104.00
2023-04-14T04:35:46.309Z,120.00
2023-04-14T04:36:46.009Z,140.00
2023-04-14T04:37:45.956Z,156.00
2023-04-14T04:38:46.129Z,180.00
2023-04-14T04:39:46.232Z,204.00
2023-04-14T04:40:45.998Z,228.00
2023-04-14T04:41:45.766Z,252.00
2023-04-14T04:42:45.951Z,284.00
2023-04-14T04:43:45.670Z,312.00
2023-04-14T04:44:45.833Z,344.00
2023-04-14T04:45:45.660Z,376.00
2023-04-14T04:46:45.801Z,412.00
2023-04-14T04:47:45.542Z,448.00
2023-04-14T04:48:45.482Z,488.00
2023-04-14T04:49:45.390Z,524.00
2023-04-14T04:50:45.697Z,568.00
2023-04-14T04:51:45.460Z,612.00
2023-04-14T04:52:45.662Z,660.00
2023-04-14T04:53:45.197Z,712.00
2023-04-14T04:54:45.130Z,764.00
2023-04-14T04:55:45.254Z,812.00
2023-04-14T04:56:45.132Z,864.00
2023-04-14T04:57:45.447Z,916.00
2023-04-14T04:58:44.983Z,964.00
2023-04-14T04:59:45.047Z,1020.00
2023-04-14T05:00:44.840Z,1072.00
2023-04-14T05:01:45.150Z,1124.00
2023-04-14T05:02:44.969Z,1184.00
2023-04-14T05:03:44.872Z,1248.00
2023-04-14T05:04:44.831Z,1312.00
2023-04-14T05:05:44.955Z,1380.00
2023-04-14T05:06:44.582Z,1456.00
2023-04-14T05:07:44.898Z,1516.00
2023-04-14T05:08:44.537Z,1592.00
2023-04-14T05:09:44.527Z,1664.00
2023-04-14T05:10:44.395Z,1740.00
2023-04-14T05:11:44.328Z,1816.00
2023-04-14T05:12:44.594Z,1884.00
2023-04-14T05:13:44.220Z,1944.00
2023-04-14T05:14:44.418Z,2004.00
2023-04-14T05:15:44.181Z,2060.00
2023-04-14T05:16:44.412Z,2128.00
2023-04-14T05:17:44.230Z,2188.00
2023-04-14T05:18:44.204Z,2248.00
2023-04-14T05:19:43.948Z,2312.00
2023-04-14T05:20:43.993Z,2364.00
2023-04-14T05:21:43.889Z,2408.00
2023-04-14T05:22:43.795Z,2448.00
2023-04-14T05:23:43.855Z,2496.00
2023-04-14T05:24:43.887Z,2544.00
2023-04-14T05:25:44.485Z,2600.00
2023-04-14T05:26:51.705Z,2652.00
2023-04-14T05:27:43.540Z,2704.00
2023-04-14T05:28:43.493Z,2744.00
2023-04-14T05:29:44.757Z,2788.00
2023-04-14T05:30:44.702Z,2828.00
2023-04-14T05:31:43.553Z,2880.00
2023-04-14T05:32:43.511Z,2916.00
2023-04-14T05:33:43.251Z,2960.00
2023-04-14T05:34:43.281Z,3004.00
2023-04-14T05:35:43.184Z,3052.00
2023-04-14T05:36:43.287Z,3100.00
2023-04-14T05:37:43.079Z,3156.00
2023-04-14T05:38:43.332Z,3196.00
2023-04-14T05:39:43.007Z,3228.00
2023-04-14T05:40:42.914Z,3280.00
2023-04-14T05:41:43.176Z,3308.00
2023-04-14T05:42:43.131Z,3340.00
2023-04-14T05:43:42.768Z,3380.00
2023-04-14T05:44:42.950Z,3412.00
2023-04-14T05:45:42.688Z,3452.00
2023-04-14T05:46:42.688Z,3492.00
2023-04-14T05:47:42.810Z,3504.00
2023-04-14T05:48:42.528Z,3520.00
2023-04-14T05:49:42.763Z,3540.00
2023-04-14T05:50:42.431Z,3580.00
2023-04-14T05:51:42.403Z,3620.00
2023-04-14T05:52:42.346Z,3652.00
2023-04-14T05:53:42.795Z,3676.00
2023-04-14T05:54:43.203Z,3696.00
2023-04-14T05:55:42.401Z,3720.00
2023-04-14T05:56:42.191Z,3728.00
2023-04-14T05:57:42.114Z,3740.00
2023-04-14T05:58:42.046Z,3752.00
2023-04-14T05:59:42.238Z,3760.00
2023-04-14T06:03:47.680Z,3868.00
2023-04-14T06:04:47.189Z,3920.00
2023-04-14T06:05:47.351Z,3988.00
2023-04-14T06:06:47.052Z,4064.00
2023-04-14T06:07:47.328Z,4136.00
2023-04-14T06:08:47.214Z,4192.00
2023-04-14T06:09:46.882Z,4256.00
2023-04-14T06:10:47.053Z,4312.00
2023-04-14T06:11:46.772Z,4380.00
2023-04-14T06:12:46.857Z,4456.00
2023-04-14T06:13:46.657Z,4512.00
2023-04-14T06:14:46.628Z,4544.00
2023-04-14T06:15:46.896Z,4580.00
2023-04-14T06:16:46.710Z,4620.00
2023-04-14T06:17:46.494Z,4656.00
2023-04-14T06:18:46.719Z,4684.00
2023-04-14T06:19:46.359Z,4704.00
2023-04-14T06:20:46.488Z,4732.00
2023-04-14T06:21:46.339Z,4756.00
2023-04-14T06:22:46.494Z,4764.00
2023-04-14T06:23:46.170Z,4792.00
2023-04-14T06:24:46.300Z,4832.00
2023-04-14T06:25:46.305Z,4852.00
2023-04-14T06:26:46.031Z,4852.00
2023-04-14T06:27:46.322Z,4884.00
2023-04-14T06:28:45.932Z,5000.00
2023-04-14T06:29:46.130Z,5144.00
2023-04-14T06:30:45.840Z,5232.00
2023-04-14T06:31:45.813Z,5292.00
2023-04-14T06:32:45.982Z,5320.00
2023-04-14T06:33:45.752Z,5336.00
2023-04-14T06:34:45.956Z,5312.00
2023-04-14T06:35:46.028Z,5288.00
2023-04-14T06:36:45.543Z,5296.00
2023-04-14T06:37:45.505Z,5340.00
2023-04-14T06:38:45.583Z,5388.00
2023-04-14T06:39:45.400Z,5452.00
2023-04-14T06:40:45.642Z,5532.00
2023-04-14T06:41:45.331Z,5592.00
2023-04-14T06:42:45.257Z,5668.00
2023-04-14T06:43:45.215Z,5756.00
2023-04-14T06:44:45.422Z,5848.00
2023-04-14T06:45:45.148Z,5932.00
2023-04-14T06:46:45.281Z,6012.00
2023-04-14T06:47:45.408Z,6080.00
2023-04-14T06:48:44.978Z,6088.00
2023-04-14T06:49:44.959Z,6040.00
2023-04-14T06:50:44.872Z,6072.00
2023-04-14T06:51:45.110Z,6160.00
2023-04-14T06:52:44.878Z,6268.00
2023-04-14T06:53:44.770Z,6380.00
2023-04-14T06:54:44.684Z,6480.00
2023-04-14T06:55:44.782Z,6572.00
2023-04-14T06:56:44.612Z,6660.00
2023-04-14T06:57:44.638Z,6700.00
2023-04-14T06:58:44.682Z,6724.00
2023-04-14T06:59:44.449Z,6744.00
2023-04-14T07:00:44.661Z,6752.00
2023-04-14T07:01:44.640Z,6764.00
2023-04-14T07:02:44.563Z,6844.00
2023-04-14T07:03:44.256Z,6992.00
2023-04-14T07:04:44.344Z,7136.00
2023-04-14T07:05:44.231Z,7280.00
2023-04-14T07:06:44.255Z,7412.00
2023-04-14T07:07:44.071Z,7516.00
2023-04-14T07:08:44.216Z,7620.00
2023-04-14T07:09:44.004Z,7716.00
2023-04-14T07:10:44.130Z,7784.00
2023-04-14T07:11:44.085Z,7804.00
2023-04-14T07:12:43.847Z,7784.00
2023-04-14T07:13:43.907Z,7820.00
2023-04-14T07:14:43.736Z,7972.00
2023-04-14T07:15:43.925Z,8188.00
2023-04-14T07:16:43.654Z,8364.00
2023-04-14T07:17:43.935Z,8448.00
2023-04-14T07:18:43.549Z,8512.00
2023-04-14T07:19:43.727Z,8556.00
2023-04-14T07:20:43.457Z,8528.00
2023-04-14T07:21:43.404Z,8516.00
2023-04-14T07:22:43.362Z,8556.00
2023-04-14T07:23:43.584Z,8632.00
2023-04-14T07:24:43.273Z,8780.00
2023-04-14T07:25:43.377Z,8940.00
2023-04-14T07:26:43.170Z,9068.00
2023-04-14T07:27:49.893Z,9240.00
2023-04-14T07:28:43.076Z,9428.00
2023-04-14T07:29:43.396Z,9584.00
2023-04-14T07:30:42.996Z,9804.00
2023-04-14T07:31:43.121Z,9948.00
2023-04-14T07:32:43.023Z,10080.00
2023-04-14T07:33:42.850Z,10248.00
2023-04-14T07:34:43.092Z,10356.00
2023-04-14T07:35:54.443Z,10460.00
2023-04-14T07:36:42.762Z,10520.00
2023-04-14T07:37:42.855Z,10592.00
2023-04-14T07:38:42.685Z,10612.00
2023-04-14T07:39:42.647Z,10600.00
2023-04-14T07:40:42.523Z,10612.00
2023-04-14T07:41:42.675Z,10572.00
2023-04-14T07:42:42.562Z,10592.00
2023-04-14T07:43:42.385Z,10776.00
2023-04-14T07:44:42.520Z,10828.00
2023-04-14T07:45:42.516Z,10972.00
2023-04-14T07:46:42.271Z,11096.00
2023-04-14T07:47:43.432Z,11240.00
2023-04-14T07:48:42.167Z,11332.00
2023-04-14T07:49:42.147Z,11392.00
2023-04-14T07:50:42.165Z,11440.00
2023-04-14T07:51:42.122Z,11320.00
2023-04-14T07:52:41.972Z,11284.00
2023-04-14T07:53:42.150Z,11368.00
2023-04-14T07:54:41.882Z,11524.00
2023-04-14T07:55:41.839Z,11752.00
2023-04-14T07:56:41.821Z,11944.00
2023-04-14T07:57:41.956Z,12080.00
2023-04-14T07:58:41.699Z,12204.00
2023-04-14T07:59:41.787Z,12344.00
2023-04-14T08:00:41.600Z,12484.00
2023-04-14T08:01:41.877Z,12800.00
2023-04-14T08:02:41.602Z,13136.00
2023-04-14T08:03:44.592Z,13464.00
2023-04-14T08:04:41.424Z,13904.00
2023-04-14T08:05:41.644Z,14336.00
2023-04-14T08:06:41.407Z,14672.00
2023-04-14T08:07:41.282Z,15060.00
2023-04-14T08:08:41.441Z,15436.00
2023-04-14T08:09:41.301Z,15984.00
2023-04-14T08:10:41.235Z,16180.00
2023-04-14T08:11:41.138Z,16484.00
2023-04-14T08:12:41.064Z,16780.00
2023-04-14T08:13:41.086Z,16944.00
2023-04-14T08:14:41.117Z,17188.00
2023-04-14T08:15:40.952Z,17356.00
2023-04-14T08:16:41.123Z,17324.00
2023-04-14T08:17:40.909Z,17424.00
2023-04-14T08:18:40.804Z,17460.00
2023-04-14T08:19:40.900Z,18048.00
2023-04-14T08:20:40.701Z,18432.00
2023-04-14T08:21:41.937Z,18912.00
2023-04-14T08:22:40.649Z,19200.00
2023-04-14T08:23:40.563Z,19520.00
2023-04-14T08:24:40.534Z,20160.00
2023-04-14T08:25:40.543Z,20928.00
2023-04-14T08:26:40.420Z,21440.00
2023-04-14T08:27:40.741Z,22720.00
2023-04-14T08:28:40.393Z,24704.00
2023-04-14T08:29:40.290Z,27072.00
2023-04-14T08:30:40.253Z,27264.00
2023-04-14T08:31:40.435Z,28928.00
2023-04-14T08:32:40.251Z,29728.00
2023-04-14T08:33:40.194Z,29888.00
2023-04-14T08:34:40.131Z,29696.00
2023-04-14T08:35:42.045Z,31360.00
2023-04-14T08:36:39.978Z,33184.00
2023-04-14T08:37:40.196Z,33088.00
2023-04-14T08:38:40.137Z,34048.00
2023-04-14T08:39:40.075Z,35264.00
2023-04-14T08:40:39.904Z,35360.00
2023-04-14T08:41:39.854Z,35744.00
2023-04-14T08:42:39.831Z,38176.00
2023-04-14T08:43:39.680Z,37536.00
2023-04-14T08:44:40.056Z,36480.00
2023-04-14T08:45:39.705Z,36896.00
2023-04-14T08:46:39.553Z,37824.00
2023-04-14T08:47:39.580Z,38016.00
2023-04-14T08:48:39.687Z,40160.00
2023-04-14T08:49:39.473Z,42336.00
2023-04-14T08:50:39.694Z,41728.00
2023-04-14T08:51:39.361Z,38624.00
2023-04-14T08:52:39.309Z,40128.00
2023-04-14T08:53:39.330Z,37920.00
2023-04-14T08:54:39.305Z,37120.00
2023-04-14T08:55:39.241Z,38496.00
2023-04-14T08:56:39.296Z,38528.00
2023-04-14T08:57:39.114Z,41504.00
2023-04-14T08:58:39.121Z,45472.00
2023-04-14T08:59:39.137Z,51296.00
2023-04-14T09:00:38.993Z,52320.00
2023-04-14T09:01:39.228Z,45856.00
2023-04-14T09:02:39.021Z,50432.00
2023-04-14T09:03:39.012Z,46080.00
2023-04-14T09:04:39.170Z,45120.00
2023-04-14T09:05:38.983Z,50240.00
2023-04-14T09:06:38.767Z,54624.00
2023-04-14T09:07:38.806Z,68768.00
2023-04-14T09:08:38.676Z,65760.00
2023-04-14T09:09:38.621Z,70560.00
2023-04-14T09:10:38.952Z,80000.00
2023-04-14T09:11:38.682Z,65504.00
2023-04-14T09:12:40.440Z,57792.00
2023-04-14T09:13:38.466Z,31008.00
2023-04-14T09:14:38.427Z,27648.00
2023-04-14T09:15:38.592Z,24896.00
2023-04-14T09:16:38.534Z,26240.00
2023-04-14T09:17:38.413Z,27840.00
2023-04-14T09:18:40.329Z,29216.00
2023-04-14T09:19:38.230Z,32128.00
2023-04-14T09:20:40.733Z,37920.00
2023-04-14T09:21:53.688Z,69216.00
2023-04-14T09:22:38.106Z,61408.00
2023-04-14T09:23:39.348Z,62656.00
2023-04-14T09:24:38.146Z,70272.00
2023-04-14T09:25:37.987Z,63328.00
2023-04-14T09:26:38.005Z,61696.00
2023-04-14T09:27:38.141Z,62112.00
2023-04-14T09:28:37.937Z,58592.00
2023-04-14T09:29:59.024Z,55968.00
2023-04-14T09:30:37.906Z,62560.00
2023-04-14T09:31:37.930Z,57440.00
2023-04-14T09:32:38.915Z,62880.00
2023-04-14T09:33:37.724Z,60672.00
2023-04-14T09:34:37.773Z,60672.00
2023-04-14T09:35:37.828Z,58528.00
2023-04-14T09:36:37.564Z,63392.00
2023-04-14T09:37:37.519Z,61408.00
2023-04-14T09:38:37.588Z,57408.00
2023-04-14T09:39:37.441Z,59264.00
2023-04-14T09:40:37.617Z,56672.00
2023-04-14T09:41:37.477Z,62976.00
2023-04-14T09:42:37.370Z,72352.00
2023-04-14T09:43:37.456Z,73504.00
2023-04-14T09:44:37.368Z,65888.00
2023-04-14T09:45:38.456Z,76288.00
2023-04-14T09:46:37.311Z,76576.00
2023-04-14T09:47:37.574Z,79072.00
2023-04-14T09:48:37.109Z,81504.00
2023-04-14T09:49:37.268Z,87904.00
2023-04-14T09:50:37.014Z,83616.00
2023-04-14T09:51:37.072Z,87968.00
2023-04-14T09:52:37.012Z,90944.00
2023-04-14T09:53:36.907Z,100672.00
2023-04-14T09:54:36.871Z,98592.00
2023-04-14T09:55:37.092Z,99648.00
2023-04-14T09:56:36.797Z,93248.00
2023-04-14T09:57:36.901Z,92544.00
2023-04-14T09:58:36.973Z,98208.00
2023-04-14T09:59:36.718Z,103072.00
2023-04-14T10:00:36.721Z,90400.00
2023-04-14T10:01:36.650Z,87968.00
2023-04-14T10:02:36.862Z,100672.00
2023-04-14T10:03:36.599Z,91424.00
2023-04-14T10:04:38.898Z,84576.00
2023-04-14T10:05:36.486Z,88768.00
2023-04-14T10:06:36.581Z,105984.00
2023-04-14T10:07:36.419Z,104512.00
2023-04-14T10:08:36.614Z,94560.00
2023-04-14T10:09:36.633Z,89344.00
2023-04-14T10:10:36.395Z,89536.00
2023-04-14T10:11:36.295Z,92288.00
2023-04-14T10:12:37.427Z,90144.00
2023-04-14T10:13:36.303Z,90016.00
2023-04-14T10:14:36.413Z,79008.00
2023-04-14T10:15:36.288Z,75904.00
2023-04-14T10:16:36.191Z,86176.00
2023-04-14T10:17:36.104Z,82208.00
2023-04-14T10:18:37.264Z,75296.00
2023-04-14T10:19:36.026Z,75424.00
2023-04-14T10:20:36.456Z,89664.00
2023-04-14T10:21:35.959Z,88864.00
2023-04-14T10:22:35.921Z,92928.00
2023-04-14T10:23:35.957Z,93792.00
2023-04-14T10:24:36.082Z,87872.00
2023-04-14T10:25:35.825Z,100416.00
2023-04-14T10:26:37.114Z,96352.00
2023-04-14T10:27:35.759Z,96160.00
2023-04-14T10:28:35.741Z,101472.00
2023-04-14T10:29:35.930Z,103104.00
2023-04-14T10:30:35.668Z,99904.00
2023-04-14T10:31:35.775Z,102240.00
2023-04-14T10:32:35.670Z,104160.00
2023-04-14T10:33:35.561Z,96224.00
2023-04-14T10:34:35.532Z,90464.00
2023-04-14T10:35:35.743Z,105280.00
2023-04-14T10:36:35.476Z,101664.00
2023-04-14T10:37:35.562Z,88448.00
2023-04-14T10:38:35.824Z,89472.00
2023-04-14T10:39:35.369Z,128608.00
2023-04-14T10:40:35.336Z,118912.00
2023-04-14T10:41:35.390Z,95680.00
2023-04-14T10:42:35.331Z,98560.00
2023-04-14T10:43:35.397Z,100608.00
2023-04-14T10:44:35.297Z,93952.00
2023-04-14T10:45:35.180Z,85920.00
2023-04-14T10:46:35.439Z,95680.00
2023-04-14T10:47:35.190Z,93792.00
2023-04-14T10:48:35.241Z,92512.00
2023-04-14T10:49:35.085Z,99552.00
2023-04-14T10:50:35.251Z,103968.00
2023-04-14T10:51:35.026Z,100000.00
2023-04-14T10:52:35.058Z,85888.00
2023-04-14T10:53:34.924Z,95008.00
2023-04-14T10:54:35.068Z,94304.00
2023-04-14T10:55:37.307Z,100320.00
2023-04-14T10:56:35.084Z,92384.00
2023-04-14T10:57:35.774Z,88256.00
2023-04-14T10:58:34.911Z,95232.00
2023-04-14T10:59:34.738Z,98176.00
2023-04-14T11:00:35.948Z,99168.00
2023-04-14T11:01:34.693Z,88288.00
2023-04-14T11:02:34.948Z,92832.00
2023-04-14T11:03:34.905Z,113664.00
2023-04-14T11:04:34.587Z,111424.00
2023-04-14T11:05:34.948Z,99104.00
2023-04-14T11:06:34.511Z,94720.00
2023-04-14T11:07:34.759Z,110944.00
2023-04-14T11:08:34.492Z,114912.00
2023-04-14T11:09:34.574Z,97952.00
2023-04-14T11:10:34.385Z,107776.00
2023-04-14T11:11:34.593Z,32736.00
2023-04-14T11:12:34.324Z,34528.00
2023-04-14T11:13:34.293Z,106176.00
2023-04-14T11:14:35.035Z,29088.00
2023-04-14T11:15:34.406Z,27712.00
2023-04-14T11:16:35.838Z,27776.00
2023-04-14T11:17:34.480Z,33856.00
2023-04-14T11:18:34.147Z,28768.00
2023-04-14T11:19:34.112Z,28768.00
2023-04-14T11:20:34.059Z,29152.00
2023-04-14T11:21:34.245Z,30368.00
2023-04-14T11:22:33.988Z,31168.00
2023-04-14T11:23:34.265Z,31264.00
2023-04-14T11:24:33.920Z,32032.00
2023-04-14T11:25:33.889Z,33632.00
2023-04-14T11:26:34.090Z,69920.00
2023-04-14T11:27:33.809Z,54656.00
2023-04-14T11:28:33.888Z,85632.00
2023-04-14T11:29:33.916Z,36832.00
2023-04-14T11:30:33.929Z,28704.00
2023-04-14T11:31:33.704Z,25440.00
2023-04-14T11:32:33.971Z,24992.00
2023-04-14T11:33:33.602Z,24320.00
2023-04-14T11:34:33.737Z,23648.00
2023-04-14T11:35:33.845Z,23424.00
2023-04-14T11:36:33.488Z,23072.00
2023-04-14T11:37:33.452Z,22208.00
2023-04-14T11:38:33.560Z,23104.00
2023-04-14T11:39:33.374Z,25248.00
2023-04-14T11:40:33.581Z,26976.00
2023-04-14T11:41:33.306Z,29440.00
2023-04-14T11:42:33.264Z,31840.00
2023-04-14T11:43:33.228Z,33248.00
2023-04-14T11:44:33.397Z,34624.00
2023-04-14T11:45:33.165Z,34720.00
2023-04-14T11:46:33.444Z,34208.00
2023-04-14T11:47:33.077Z,33376.00
2023-04-14T11:48:33.051Z,37920.00
2023-04-14T11:49:33.235Z,76480.00
2023-04-14T11:50:32.968Z,112832.00
2023-04-14T11:51:33.034Z,146080.00
2023-04-14T11:52:32.917Z,83936.00
2023-04-14T11:53:33.060Z,58848.00
2023-04-14T11:54:33.324Z,53696.00
2023-04-14T11:55:33.064Z,65792.00
2023-04-14T11:56:32.748Z,81280.00
2023-04-14T11:57:32.878Z,88320.00
2023-04-14T11:58:32.937Z,101280.00
2023-04-14T11:59:32.626Z,100000.00
2023-04-14T12:00:32.593Z,108736.00
2023-04-14T12:01:32.703Z,127072.00
2023-04-14T12:02:32.660Z,123008.00
2023-04-14T12:03:32.902Z,105856.00
2023-04-14T12:04:32.638Z,109408.00
2023-04-14T12:05:32.479Z,128928.00
2023-04-14T12:06:32.404Z,120512.00
2023-04-14T12:07:32.545Z,109632.00
2023-04-14T12:08:32.385Z,114240.00
2023-04-14T12:09:32.576Z,129344.00
2023-04-14T12:10:32.433Z,124544.00
2023-04-14T12:11:32.217Z,112032.00
2023-04-14T12:12:32.179Z,112640.00
2023-04-14T12:13:32.397Z,114080.00
2023-04-14T12:14:32.102Z,103936.00
2023-04-14T12:15:32.191Z,101664.00
2023-04-14T12:16:32.417Z,113600.00
2023-04-14T12:17:32.271Z,131072.00
2023-04-14T12:18:31.969Z,117440.00
2023-04-14T12:19:32.238Z,106464.00
2023-04-14T12:20:31.915Z,69856.00
2023-04-14T12:21:32.056Z,93536.00
2023-04-14T12:22:32.036Z,151296.00
2023-04-14T12:23:31.808Z,131424.00